Time;durP1;ratioP1;P1;durP2;ratioP2;P2;SDS_P1;SDS_P2;PMS_P1;PMS_P2;Temp;Humidity;BMP_temperature;BMP_pressure;BME280_temperature;BME280_humidity;BME280_pressure;Samples;Min_cycle;Max_cycle;Signal;HPM_P1;HPM_P2
2022/11/17 00:01:52;;;;;;;1.35;1.17;;;;;;;8.57;80.68;99656.22;4988765;28;20042;-64
2022/11/17 00:04:17;;;;;;;1.60;1.20;;;;;;;8.55;80.77;99658.50;4984170;28;20035;-64
2022/11/17 00:06:43;;;;;;;1.77;1.00;;;;;;;8.32;81.59;99655.13;4998376;28;20042;-63
2022/11/17 00:09:16;;;;;;;4.60;1.48;;;;;;;8.39;81.64;99641.03;4989507;28;20039;-63
2022/11/17 00:14:31;;;;;;;2.45;1.85;;;;;;;8.22;82.01;99639.66;5014668;23;20116;-66
2022/11/17 00:16:57;;;;;;;1.90;1.13;;;;;;;8.53;81.29;99628.56;4990275;28;20121;-67
2022/11/17 00:22:06;;;;;;;1.23;1.13;;;;;;;8.24;82.05;99618.59;4989753;28;20084;-67
2022/11/17 00:24:32;;;;;;;1.58;1.48;;;;;;;8.34;81.59;99623.38;4990757;28;20418;-67
2022/11/17 00:27:00;;;;;;;1.30;1.13;;;;;;;8.41;81.75;99633.38;4989986;28;20065;-66
2022/11/17 00:29:26;;;;;;;1.77;1.10;;;;;;;8.42;81.02;99635.69;4988841;28;20036;-67
2022/11/17 00:34:35;;;;;;;2.40;1.58;;;;;;;8.38;81.03;99624.16;4987968;28;20038;-67
2022/11/17 00:37:01;;;;;;;2.55;1.42;;;;;;;8.24;81.86;99613.25;4994231;28;20041;-67
2022/11/17 00:39:26;;;;;;;3.60;1.35;;;;;;;8.25;81.97;99611.34;4989330;28;20030;-67
2022/11/17 00:41:52;;;;;;;1.67;1.30;;;;;;;8.43;82.02;99604.28;4993812;28;20768;-67
2022/11/17 00:44:18;;;;;;;1.75;1.30;;;;;;;8.30;81.81;99611.03;4990324;28;20027;-67
2022/11/17 00:46:43;;;;;;;1.77;1.42;;;;;;;8.46;81.67;99614.31;4990579;28;20042;-69
2022/11/17 00:49:10;;;;;;;2.00;1.40;;;;;;;8.52;80.84;99610.91;4989561;28;20081;-68
2022/11/17 00:51:36;;;;;;;2.97;1.92;;;;;;;8.43;80.39;99604.28;4991164;28;20080;-68
2022/11/17 00:54:03;;;;;;;2.67;1.60;;;;;;;8.51;80.32;99589.81;4990872;28;20030;-68
2022/11/17 00:56:29;;;;;;;1.55;1.23;;;;;;;8.43;80.95;99594.34;4989928;28;20038;-68
2022/11/17 00:58:55;;;;;;;2.38;1.52;;;;;;;8.48;81.06;99594.00;4986261;28;20066;-68
2022/11/17 01:01:20;;;;;;;4.53;1.63;;;;;;;8.45;81.06;99589.38;4990898;28;20093;-68
2022/11/17 01:03:46;;;;;;;2.55;1.80;;;;;;;8.60;80.35;99571.50;4999232;28;20402;-68
2022/11/17 01:06:18;;;;;;;2.33;1.52;;;;;;;8.46;80.50;99580.19;5001765;28;20552;-68
2022/11/17 01:08:44;;;;;;;1.45;1.30;;;;;;;8.45;80.20;99580.56;4996997;28;20034;-68
2022/11/17 01:11:11;;;;;;;3.42;1.90;;;;;;;8.39;80.89;99582.78;5002255;28;20029;-68
2022/11/17 01:13:38;;;;;;;2.83;1.92;;;;;;;8.55;80.39;99574.53;5002900;28;20037;-68
2022/11/17 01:16:10;;;;;;;1.95;1.48;;;;;;;8.15;81.48;99567.16;5001550;28;20367;-69
2022/11/17 01:18:36;;;;;;;2.47;1.67;;;;;;;8.01;81.42;99573.09;4995901;28;20029;-68
2022/11/17 01:21:13;;;;;;;2.22;1.55;;;;;;;8.19;81.86;99578.69;4990937;28;20514;-68
2022/11/17 01:23:40;;;;;;;2.08;1.83;;;;;;;8.38;81.31;99565.13;4990909;28;20434;-68
2022/11/17 01:26:26;;;;;;;1.88;1.67;;;;;;;8.42;80.81;99579.38;4991019;28;20494;-68
2022/11/17 01:28:52;;;;;;;3.45;1.90;;;;;;;8.30;80.19;99552.81;4988875;28;20050;-69
2022/11/17 01:31:23;;;;;;;1.55;1.30;;;;;;;8.17;81.50;99559.50;4989625;28;20068;-69
2022/11/17 01:33:49;;;;;;;;;;;;;;;8.07;81.80;99552.88;4996165;28;20042;-69
2022/11/17 01:36:26;;;;;;;1.23;1.05;;;;;;;8.15;82.12;99541.09;4990357;28;19914;-69
2022/11/17 01:38:52;;;;;;;4.82;2.28;;;;;;;8.13;81.34;99556.00;4986923;28;20038;-69
2022/11/17 01:41:23;;;;;;;4.88;2.20;;;;;;;8.10;81.24;99546.81;4994605;28;20137;-69
2022/11/17 01:43:50;;;;;;;;;;;;;;;8.10;80.90;99537.97;4990414;28;20376;-69
2022/11/17 01:46:32;;;;;;;1.77;1.65;;;;;;;8.19;81.39;99539.25;4993280;28;19913;-69
2022/11/17 01:49:19;;;;;;;3.20;1.95;;;;;;;8.34;80.76;99534.06;5000716;28;20038;-69
2022/11/17 01:51:49;;;;;;;2.90;1.95;;;;;;;8.10;81.16;99538.75;5011865;28;20045;-69
2022/11/17 01:54:18;;;;;;;2.45;2.08;;;;;;;7.93;81.79;99522.47;4987873;28;20379;-69
2022/11/17 01:56:47;;;;;;;2.58;1.50;;;;;;;8.13;81.88;99513.13;5005349;28;20529;-69
2022/11/17 01:59:20;;;;;;;4.68;2.42;;;;;;;8.11;81.83;99507.34;4993767;28;20660;-69
2022/11/17 02:01:56;;;;;;;3.20;1.52;;;;;;;8.21;81.08;99495.97;4991050;28;20038;-69
2022/11/17 02:04:31;;;;;;;1.70;1.48;;;;;;;8.01;81.06;99500.72;4998953;28;20021;-69
2022/11/17 02:07:15;;;;;;;3.28;1.70;;;;;;;8.03;81.46;99500.38;4994982;28;20038;-69
2022/11/17 02:09:42;;;;;;;2.42;1.92;;;;;;;7.98;81.66;99503.38;4988818;28;20487;-69
2022/11/17 02:12:11;;;;;;;2.35;1.85;;;;;;;7.85;81.87;99510.88;4996037;28;20034;-69
2022/11/17 02:14:37;;;;;;;2.53;1.63;;;;;;;8.10;80.89;99495.09;4992747;28;20169;-68
2022/11/17 02:17:04;;;;;;;2.25;2.00;;;;;;;7.91;81.12;99504.06;4997852;28;20109;-68
2022/11/17 02:19:36;;;;;;;5.78;1.52;;;;;;;8.05;81.47;99498.84;4993669;28;20505;-68
2022/11/17 02:22:19;;;;;;;;;;;;;;;7.94;81.02;99491.84;4995167;28;20038;-69
2022/11/17 02:24:48;;;;;;;3.22;2.08;;;;;;;7.94;81.10;99506.00;4998664;28;19917;-69
2022/11/17 02:27:40;;;;;;;1.95;1.67;;;;;;;8.10;80.50;99497.78;4997369;28;20034;-69
2022/11/17 02:30:23;;;;;;;1.73;1.38;;;;;;;8.07;80.15;99498.50;5004752;28;20430;-69
2022/11/17 02:33:15;;;;;;;2.33;1.80;;;;;;;7.74;80.53;99496.56;4988223;28;20039;-69
2022/11/17 02:36:00;;;;;;;3.55;1.52;;;;;;;7.84;81.03;99490.56;4991248;28;20581;-69
2022/11/17 02:38:43;;;;;;;3.10;2.03;;;;;;;7.59;80.90;99481.44;4993145;28;20030;-69
2022/11/17 02:41:29;;;;;;;2.22;1.67;;;;;;;7.83;81.06;99477.53;4989963;28;20427;-69
2022/11/17 02:44:08;;;;;;;4.20;2.28;;;;;;;7.80;80.95;99487.06;4992903;28;20406;-69
2022/11/17 02:46:52;;;;;;;2.95;1.77;;;;;;;7.71;80.95;99472.41;4994357;28;20031;-69
2022/11/17 02:49:23;;;;;;;2.58;1.70;;;;;;;7.92;80.34;99470.75;4988672;28;20384;-68
2022/11/17 02:51:52;;;;;;;3.30;1.70;;;;;;;7.70;80.80;99468.19;4989234;28;20148;-69
2022/11/17 02:54:20;;;;;;;2.90;1.88;;;;;;;7.78;80.82;99467.16;4992200;28;20114;-69
2022/11/17 02:56:45;;;;;;;3.28;2.08;;;;;;;7.63;80.99;99460.06;4981377;28;20035;-68
2022/11/17 02:59:14;;;;;;;4.13;2.42;;;;;;;7.71;80.80;99448.31;4990579;28;20494;-68
2022/11/17 03:01:57;;;;;;;9.02;2.10;;;;;;;7.70;79.95;99479.69;4979557;28;20084;-68
2022/11/17 03:04:46;;;;;;;3.33;2.22;;;;;;;7.49;80.40;99470.63;4987774;28;20069;-69
2022/11/17 03:07:23;;;;;;;3.50;1.73;;;;;;;7.58;80.80;99474.56;5004149;28;20042;-69
2022/11/17 03:10:00;;;;;;;2.65;1.45;;;;;;;7.53;80.97;99471.44;4985932;28;20038;-69
2022/11/17 03:12:28;;;;;;;3.00;2.05;;;;;;;7.75;80.14;99455.25;4985852;28;20035;-69
2022/11/17 03:15:11;;;;;;;5.97;2.38;;;;;;;7.46;80.80;99453.34;4991047;28;20092;-69
2022/11/17 03:17:56;;;;;;;2.63;2.10;;;;;;;7.57;80.83;99458.88;4991387;28;20034;-69
2022/11/17 03:20:26;;;;;;;3.72;1.67;;;;;;;7.74;80.06;99448.34;4992642;28;20117;-68
2022/11/17 03:23:01;;;;;;;3.50;1.98;;;;;;;7.68;79.81;99452.50;5007482;28;20062;-68
2022/11/17 03:25:31;;;;;;;3.67;2.28;;;;;;;7.46;80.29;99439.97;4992529;28;20034;-68
2022/11/17 03:28:03;;;;;;;2.10;1.90;;;;;;;7.67;80.49;99434.09;4991389;28;20499;-69
2022/11/17 03:30:29;;;;;;;2.38;1.85;;;;;;;7.66;80.11;99433.34;4992414;28;20697;-69
2022/11/17 03:33:04;;;;;;;3.47;1.90;;;;;;;7.59;79.84;99429.81;4992138;28;20443;-69
2022/11/17 03:35:33;;;;;;;4.13;2.22;;;;;;;7.44;80.35;99430.75;4992707;28;20411;-68
2022/11/17 03:38:07;;;;;;;4.75;1.80;;;;;;;7.29;80.28;99425.22;4998006;28;20030;-68
2022/11/17 03:40:34;;;;;;;4.35;1.85;;;;;;;7.19;81.07;99425.84;5002084;28;20026;-69
2022/11/17 03:43:04;;;;;;;3.35;1.73;;;;;;;7.21;81.43;99422.81;4993427;28;20039;-69
2022/11/17 03:45:40;;;;;;;2.67;1.55;;;;;;;7.36;80.83;99431.78;4995101;28;20041;-69
2022/11/17 03:48:25;;;;;;;2.78;2.28;;;;;;;7.38;80.09;99432.97;4990557;28;20456;-68
2022/11/17 03:50:57;;;;;;;4.18;1.77;;;;;;;7.41;80.50;99428.81;4989498;28;20073;-68
2022/11/17 03:53:23;;;;;;;4.30;1.88;;;;;;;7.38;80.25;99419.59;4989802;28;20030;-68
2022/11/17 03:56:06;;;;;;;1.98;1.58;;;;;;;7.35;80.62;99406.94;5000794;28;20034;-69
2022/11/17 03:58:36;;;;;;;2.08;1.65;;;;;;;7.38;79.88;99410.78;4992842;28;20487;-68
2022/11/17 04:01:04;;;;;;;4.80;2.42;;;;;;;7.50;80.55;99400.59;5006157;28;20046;-68
2022/11/17 04:03:33;;;;;;;2.95;2.22;;;;;;;7.60;79.27;99388.47;4990067;28;20041;-68
2022/11/17 04:05:59;;;;;;;1.90;1.35;;;;;;;7.48;79.41;99391.38;4990085;28;20046;-68
2022/11/17 04:08:45;;;;;;;2.92;1.92;;;;;;;7.39;79.55;99393.59;5005379;28;20038;-69
2022/11/17 04:16:39;;;;;;;4.28;2.13;;;;;;;7.22;80.27;99376.94;4985467;28;20054;-69
2022/11/17 04:19:04;;;;;;;2.53;1.85;;;;;;;7.19;80.78;99380.34;4983467;28;20036;-69
2022/11/17 04:21:29;;;;;;;3.40;1.92;;;;;;;7.43;79.31;99357.69;4984506;28;20177;-69
2022/11/17 04:23:56;;;;;;;3.47;1.73;;;;;;;7.20;80.50;99376.53;4979390;28;20106;-68
2022/11/17 04:29:06;;;;;;;3.30;1.85;;;;;;;7.38;80.74;99366.03;4982138;28;20108;-68
2022/11/17 04:31:32;;;;;;;2.92;2.08;;;;;;;7.46;79.86;99369.56;4983836;28;20034;-68
2022/11/17 04:34:00;;;;;;;3.63;2.13;;;;;;;7.37;80.00;99371.75;4984947;28;20039;-68
2022/11/17 04:36:28;;;;;;;3.50;2.28;;;;;;;7.42;79.60;99371.41;4987419;28;20527;-68
2022/11/17 04:38:57;;;;;;;2.30;1.70;;;;;;;7.23;80.27;99349.03;4970499;28;20398;-68
2022/11/17 04:44:11;;;;;;;3.40;1.55;;;;;;;7.28;80.69;99372.03;4981955;28;20658;-69
2022/11/17 04:46:37;;;;;;;4.13;2.30;;;;;;;7.45;80.71;99368.03;4987014;28;20049;-68
2022/11/17 04:49:04;;;;;;;2.72;1.88;;;;;;;7.52;79.88;99365.41;4979206;28;20507;-68
2022/11/17 04:51:30;;;;;;;3.47;1.58;;;;;;;7.30;80.25;99375.88;4990905;28;20065;-68
2022/11/17 04:53:57;;;;;;;2.50;1.65;;;;;;;7.23;80.50;99359.75;4989878;28;20048;-68
2022/11/17 04:56:23;;;;;;;2.83;2.25;;;;;;;7.27;80.33;99354.44;4988987;28;20522;-69
2022/11/17 04:58:49;;;;;;;3.45;2.53;;;;;;;7.07;80.34;99327.03;4990596;28;20038;-68
2022/11/17 05:01:17;;;;;;;4.15;2.70;;;;;;;6.95;81.40;99321.91;4987279;28;20038;-68
2022/11/17 05:03:42;;;;;;;4.32;2.28;;;;;;;6.81;81.96;99329.00;4990816;28;20038;-68
2022/11/17 05:06:17;;;;;;;2.22;1.55;;;;;;;6.85;82.77;99319.84;4989970;28;20392;-69
2022/11/17 05:08:43;;;;;;;2.85;2.03;;;;;;;7.06;81.23;99341.56;4989234;28;20038;-68
2022/11/17 05:13:55;;;;;;;5.55;2.42;;;;;;;7.14;81.03;99327.09;4988217;28;20045;-68
2022/11/17 05:19:08;;;;;;;2.65;1.67;;;;;;;7.07;81.33;99343.09;4990332;28;20057;-69
2022/11/17 05:21:34;;;;;;;11.00;2.20;;;;;;;7.20;80.58;99341.72;4989505;28;20039;-69
2022/11/17 05:23:59;;;;;;;3.78;1.83;;;;;;;7.35;80.41;99342.66;5009323;28;20530;-68
2022/11/17 05:26:28;;;;;;;4.43;2.15;;;;;;;7.31;79.77;99344.53;4993465;28;20056;-68
2022/11/17 05:28:55;;;;;;;3.58;2.13;;;;;;;7.20;80.53;99341.72;4993504;28;20125;-68
2022/11/17 05:31:21;;;;;;;3.90;3.00;;;;;;;7.14;79.86;99343.16;4987093;28;20037;-69
2022/11/17 05:33:47;;;;;;;4.80;2.90;;;;;;;7.17;80.65;99355.84;4993812;28;20495;-69
2022/11/17 05:36:13;;;;;;;2.05;1.58;;;;;;;7.11;79.96;99327.06;4992724;28;20053;-68
2022/11/17 05:38:39;;;;;;;4.40;2.45;;;;;;;7.14;80.57;99332.47;4993182;28;20030;-70
2022/11/17 05:41:05;;;;;;;4.55;2.83;;;;;;;7.13;80.32;99325.59;4990826;28;20035;-70
2022/11/17 05:43:30;;;;;;;5.05;2.35;;;;;;;7.34;79.98;99318.94;4993848;28;20022;-68
2022/11/17 05:45:56;;;;;;;4.13;2.10;;;;;;;7.18;80.15;99330.59;4991552;28;20030;-68
2022/11/17 05:48:21;;;;;;;7.97;2.45;;;;;;;6.94;80.72;99315.03;4992086;28;20038;-69
2022/11/17 05:50:47;;;;;;;5.25;3.05;;;;;;;6.93;81.12;99321.50;4988392;28;20035;-69
2022/11/17 05:53:12;;;;;;;2.53;1.77;;;;;;;7.01;80.65;99336.50;5003818;28;20039;-68
2022/11/17 05:55:38;;;;;;;5.25;2.58;;;;;;;6.88;81.25;99321.81;4985792;28;20057;-68
2022/11/17 05:58:11;;;;;;;5.00;2.30;;;;;;;7.12;81.33;99329.38;4980640;28;20459;-69
2022/11/17 06:00:39;;;;;;;5.38;2.28;;;;;;;7.10;81.18;99322.88;4979673;28;20958;-68
2022/11/17 06:03:11;;;;;;;5.65;2.97;;;;;;;7.19;79.71;99326.81;4991781;28;20034;-68
2022/11/17 06:05:36;;;;;;;5.03;2.83;;;;;;;7.18;80.26;99321.81;4991700;28;20514;-68
2022/11/17 06:08:02;;;;;;;4.60;2.45;;;;;;;7.27;79.45;99314.28;4977282;28;20061;-69
2022/11/17 06:10:27;;;;;;;4.35;2.38;;;;;;;7.24;79.60;99314.97;4989043;28;20067;-68
2022/11/17 06:12:53;;;;;;;2.38;1.50;;;;;;;7.36;79.06;99320.09;4995507;28;20049;-68
2022/11/17 06:15:19;;;;;;;3.00;2.17;;;;;;;7.27;79.11;99319.63;5021151;23;20066;-70
2022/11/17 06:17:53;;;;;;;2.80;2.25;;;;;;;7.09;80.12;99313.28;4997715;28;20038;-70
2022/11/17 06:20:27;;;;;;;5.03;2.78;;;;;;;7.13;80.20;99304.16;5005501;28;20076;-70
2022/11/17 06:22:55;;;;;;;4.95;2.95;;;;;;;6.92;80.73;99295.88;5009931;28;20041;-70
2022/11/17 06:25:20;;;;;;;3.80;2.17;;;;;;;6.88;80.80;99300.41;5025710;28;20025;-70
2022/11/17 06:27:49;;;;;;;6.45;3.33;;;;;;;7.05;80.55;99304.44;5024754;28;20030;-70
2022/11/17 06:30:15;;;;;;;2.72;1.48;;;;;;;7.02;80.54;99299.81;5028532;28;20116;-70
2022/11/17 06:32:42;;;;;;;3.40;2.15;;;;;;;7.05;79.88;99289.16;5028712;28;20470;-70
2022/11/17 06:35:10;;;;;;;3.08;2.40;;;;;;;7.13;80.30;99298.03;5022868;28;20752;-70
2022/11/17 06:37:35;;;;;;;3.30;2.05;;;;;;;7.17;79.63;99310.34;5014701;28;20128;-70
2022/11/17 06:40:01;;;;;;;4.70;2.78;;;;;;;7.11;79.54;99292.28;5023349;28;20108;-70
2022/11/17 06:45:11;;;;;;;6.88;3.47;;;;;;;7.10;79.98;99293.44;5021969;28;20044;-70
2022/11/17 06:47:36;;;;;;;7.95;3.17;;;;;;;7.11;80.54;99285.03;5026660;28;20037;-70
2022/11/17 06:50:02;;;;;;;5.10;2.80;;;;;;;6.83;80.75;99282.00;5022492;28;20921;-72
2022/11/17 06:52:28;;;;;;;4.28;2.58;;;;;;;6.74;80.77;99294.88;5028752;28;20033;-71
2022/11/17 06:54:53;;;;;;;4.22;2.70;;;;;;;6.73;81.21;99303.28;5015916;28;20410;-71
2022/11/17 06:57:19;;;;;;;4.43;2.75;;;;;;;6.48;82.16;99294.91;5023156;28;20048;-71
2022/11/17 06:59:44;;;;;;;4.40;2.53;;;;;;;6.67;81.87;99294.00;5032884;28;20478;-70
2022/11/17 07:02:10;;;;;;;5.07;2.50;;;;;;;6.51;82.56;99296.84;5016108;28;20030;-71
2022/11/17 07:04:35;;;;;;;5.25;2.40;;;;;;;6.76;82.04;99331.97;5019572;28;20486;-71
2022/11/17 07:07:03;;;;;;;5.57;2.13;;;;;;;6.77;81.45;99291.50;5015045;28;20048;-71
2022/11/17 07:09:29;;;;;;;4.18;2.55;;;;;;;6.95;81.10;99283.69;5022254;28;20176;-71
2022/11/17 07:11:56;;;;;;;2.17;1.98;;;;;;;7.01;81.30;99301.72;5027719;28;20468;-71
2022/11/17 07:14:21;;;;;;;4.00;2.67;;;;;;;7.10;80.30;99294.19;5029569;28;20018;-71
2022/11/17 07:16:46;;;;;;;3.53;2.03;;;;;;;7.24;79.25;99293.56;5029522;28;20444;-71
2022/11/17 07:19:12;;;;;;;4.43;2.60;;;;;;;7.11;79.74;99294.97;5023925;28;20115;-71
2022/11/17 07:21:38;;;;;;;4.07;2.90;;;;;;;7.15;78.53;99291.19;5026915;28;20131;-71
2022/11/17 07:24:06;;;;;;;3.97;2.58;;;;;;;6.83;80.05;99290.03;5013388;28;20466;-72
2022/11/17 07:26:32;;;;;;;3.63;2.30;;;;;;;6.90;80.58;99287.44;5021563;28;20040;-72
2022/11/17 07:28:57;;;;;;;3.35;1.88;;;;;;;7.04;79.28;99300.22;5025142;28;20051;-71
2022/11/17 07:31:25;;;;;;;4.32;1.95;;;;;;;7.04;79.84;99286.84;5029551;28;20056;-71
2022/11/17 07:34:12;;;;;;;3.85;2.33;;;;;;;6.98;79.65;99301.69;5028274;28;20110;-71
2022/11/17 07:36:38;;;;;;;3.78;2.60;;;;;;;6.97;79.86;99292.88;4988566;28;20058;-70
2022/11/17 07:39:04;;;;;;;4.25;2.58;;;;;;;6.78;80.75;99289.56;4983467;28;20061;-71
2022/11/17 07:41:30;;;;;;;2.92;1.77;;;;;;;6.89;80.89;99290.50;4988409;28;20042;-71
2022/11/17 07:44:00;;;;;;;4.13;2.55;;;;;;;7.20;80.10;99290.84;4987942;28;20034;-71
2022/11/17 07:46:25;;;;;;;4.38;2.80;;;;;;;6.67;80.92;99276.06;4989037;28;20057;-70
2022/11/17 07:49:14;;;;;;;4.07;2.30;;;;;;;6.70;81.58;99295.97;4986841;28;20550;-70
2022/11/17 07:51:40;;;;;;;4.95;2.47;;;;;;;6.75;80.60;99292.97;4893267;29;20052;-71
2022/11/17 07:54:05;;;;;;;2.75;1.80;;;;;;;6.83;81.08;99291.94;4911411;29;20393;-71
2022/11/17 07:56:30;;;;;;;4.05;2.63;;;;;;;6.77;81.07;99294.16;4912524;29;20085;-71
2022/11/17 07:58:56;;;;;;;3.78;2.30;;;;;;;6.77;80.75;99274.66;4906791;29;20043;-71
2022/11/17 08:01:21;;;;;;;4.38;2.17;;;;;;;6.93;80.64;99288.63;4912374;29;20048;-71
2022/11/17 08:03:47;;;;;;;4.63;2.88;;;;;;;7.06;79.95;99276.56;4896277;29;20662;-71
2022/11/17 08:06:12;;;;;;;4.43;2.03;;;;;;;7.19;79.46;99316.09;4910756;29;20035;-72
2022/11/17 08:08:38;;;;;;;3.17;2.08;;;;;;;7.06;80.60;99295.28;4907947;29;20060;-72
2022/11/17 08:11:06;;;;;;;3.28;1.77;;;;;;;6.98;79.80;99297.13;4911647;29;20040;-70
2022/11/17 08:13:32;;;;;;;4.22;2.58;;;;;;;6.80;81.22;99284.63;4937606;28;20539;-70
2022/11/17 08:15:58;;;;;;;4.68;2.35;;;;;;;6.90;80.79;99294.69;4957102;28;20050;-71
2022/11/17 08:18:24;;;;;;;4.50;2.47;;;;;;;6.92;81.39;99295.09;4960788;28;20038;-71
2022/11/17 08:20:50;;;;;;;5.22;2.25;;;;;;;6.81;81.71;99291.53;4962375;28;20507;-70
2022/11/17 08:23:16;;;;;;;4.10;2.22;;;;;;;6.87;81.60;99282.81;4938207;28;20039;-70
2022/11/17 08:25:42;;;;;;;3.95;2.58;;;;;;;6.93;81.57;99278.69;4967457;28;20038;-71
2022/11/17 08:28:07;;;;;;;3.97;2.10;;;;;;;6.98;81.25;99285.63;4978355;28;20045;-71
2022/11/17 08:30:34;;;;;;;5.70;2.65;;;;;;;6.95;81.40;99286.38;5023602;28;20061;-72
2022/11/17 08:33:01;;;;;;;3.08;2.20;;;;;;;6.94;81.39;99269.53;5012416;28;20769;-71
2022/11/17 08:35:27;;;;;;;4.22;2.70;;;;;;;7.06;81.21;99279.22;5022880;28;20041;-71
2022/11/17 08:37:55;;;;;;;2.60;1.60;;;;;;;7.14;80.35;99283.53;5018010;28;20034;-71
2022/11/17 08:40:21;;;;;;;8.50;2.65;;;;;;;7.03;81.45;99270.00;5022839;28;20496;-70
2022/11/17 08:42:52;;;;;;;3.60;2.20;;;;;;;7.13;81.19;99272.06;5015300;28;20044;-71
2022/11/17 08:45:17;;;;;;;;;;;;;;;7.18;81.51;99252.22;5024037;28;20421;-71
2022/11/17 08:47:43;;;;;;;3.47;1.98;;;;;;;7.14;81.63;99262.88;5016427;28;19917;-70
2022/11/17 08:50:08;;;;;;;3.17;2.30;;;;;;;7.18;80.96;99261.00;5022826;28;20045;-70
2022/11/17 08:52:34;;;;;;;3.13;2.22;;;;;;;7.27;81.28;99260.72;5021913;28;20025;-71
2022/11/17 08:55:00;;;;;;;5.20;2.65;;;;;;;7.09;81.57;99254.41;5023289;28;20026;-70
2022/11/17 08:57:28;;;;;;;4.38;2.60;;;;;;;7.02;82.17;99247.09;5032149;28;20033;-70
2022/11/17 08:59:54;;;;;;;4.60;2.50;;;;;;;7.27;81.14;99258.06;5025721;28;20047;-70
2022/11/17 09:02:19;;;;;;;2.90;1.77;;;;;;;7.16;81.58;99241.88;5013726;28;20113;-71
2022/11/17 09:04:45;;;;;;;4.35;2.55;;;;;;;7.27;81.84;99266.84;5031159;28;20038;-71
2022/11/17 09:07:11;;;;;;;4.30;2.22;;;;;;;7.39;81.54;99260.47;5028635;28;20083;-71
2022/11/17 09:09:36;;;;;;;4.72;2.60;;;;;;;7.10;82.26;99261.31;5028537;28;20037;-72
2022/11/17 09:12:02;;;;;;;5.47;2.60;;;;;;;7.29;81.88;99264.59;5027972;28;20073;-71
2022/11/17 09:14:27;;;;;;;4.43;2.97;;;;;;;7.08;82.50;99263.59;5029266;28;20065;-71
2022/11/17 09:16:53;;;;;;;5.40;2.47;;;;;;;7.03;82.59;99251.28;5026350;28;20152;-71
2022/11/17 09:19:19;;;;;;;2.88;2.28;;;;;;;7.04;82.31;99252.06;5026926;28;20525;-71
2022/11/17 09:21:44;;;;;;;4.03;2.58;;;;;;;7.21;82.21;99241.56;5030477;28;20037;-71
2022/11/17 09:24:10;;;;;;;3.35;2.38;;;;;;;7.29;82.44;99243.16;5029023;28;20048;-71
2022/11/17 09:26:39;;;;;;;3.05;2.33;;;;;;;7.45;81.98;99244.84;5029407;28;20056;-71
2022/11/17 09:29:06;;;;;;;4.97;2.80;;;;;;;7.17;81.84;99243.41;5025080;28;20034;-70
2022/11/17 09:31:33;;;;;;;3.72;2.38;;;;;;;7.26;82.32;99248.47;5030471;28;20033;-70
2022/11/17 09:33:58;;;;;;;5.90;2.90;;;;;;;7.24;82.31;99238.13;5033832;28;20041;-71
2022/11/17 09:36:24;;;;;;;5.95;3.00;;;;;;;7.19;82.22;99238.47;5028291;28;20087;-70
2022/11/17 09:38:49;;;;;;;5.00;3.00;;;;;;;6.72;83.87;99242.88;5028247;28;20025;-71
2022/11/17 09:41:15;;;;;;;5.85;3.28;;;;;;;6.91;83.87;99232.78;5029280;28;20521;-71
2022/11/17 09:43:57;;;;;;;5.03;2.97;;;;;;;6.95;84.10;99228.25;5029265;28;20037;-71
2022/11/17 09:46:46;;;;;;;4.20;2.22;;;;;;;7.03;83.27;99227.19;5027781;28;20513;-71
2022/11/17 09:49:20;;;;;;;3.47;2.42;;;;;;;7.10;83.44;99232.63;5027673;28;20072;-71
2022/11/17 09:51:48;;;;;;;4.50;2.50;;;;;;;7.19;83.28;99238.47;5022908;28;20034;-72
2022/11/17 09:54:29;;;;;;;6.03;2.95;;;;;;;7.17;82.87;99227.34;5025396;28;20112;-72
2022/11/17 09:56:57;;;;;;;3.47;2.20;;;;;;;7.17;82.89;99224.69;5028558;28;20029;-71
2022/11/17 09:59:26;;;;;;;4.40;2.70;;;;;;;7.07;83.42;99233.38;5032209;28;20030;-72
2022/11/17 10:01:52;;;;;;;4.72;3.08;;;;;;;7.41;82.24;99244.03;5026780;28;20064;-74
2022/11/17 10:04:18;;;;;;;4.70;2.42;;;;;;;7.39;82.46;99240.97;5029821;28;20346;-72
2022/11/17 10:06:47;;;;;;;7.13;3.42;;;;;;;7.40;82.23;99235.22;5016763;28;20041;-71
2022/11/17 10:09:40;;;;;;;5.55;2.83;;;;;;;7.19;83.08;99237.69;5014540;28;20058;-72
2022/11/17 10:12:19;;;;;;;4.65;2.90;;;;;;;7.16;83.33;99227.72;5021009;28;20037;-72
2022/11/17 10:14:47;;;;;;;4.72;2.60;;;;;;;7.22;83.06;99235.03;5007685;28;20041;-72
2022/11/17 10:17:13;;;;;;;5.25;3.05;;;;;;;7.35;82.66;99240.94;5005652;28;20029;-71
2022/11/17 10:19:39;;;;;;;4.43;2.80;;;;;;;7.35;82.56;99213.38;5019751;28;20083;-71
2022/11/17 10:22:05;;;;;;;6.88;2.90;;;;;;;7.25;82.94;99210.22;5018785;28;20510;-73
2022/11/17 10:24:33;;;;;;;6.03;3.33;;;;;;;7.02;83.65;99208.84;5025350;28;20029;-72
2022/11/17 10:27:01;;;;;;;5.43;3.40;;;;;;;7.11;83.40;99210.09;5012999;28;20033;-71
2022/11/17 10:29:26;;;;;;;5.72;3.05;;;;;;;7.48;82.56;99215.41;5022725;28;20397;-72
2022/11/17 10:31:52;;;;;;;8.10;3.08;;;;;;;7.42;82.80;99205.41;5020898;28;20033;-72
2022/11/17 10:34:30;;;;;;;5.32;3.15;;;;;;;7.46;82.00;99208.88;5029424;28;20048;-71
2022/11/17 10:37:03;;;;;;;4.90;2.35;;;;;;;7.48;82.06;99209.28;5016440;28;20079;-72
2022/11/17 10:39:35;;;;;;;6.35;3.00;;;;;;;7.60;82.02;99198.28;5028830;28;20029;-71
2022/11/17 10:42:17;;;;;;;6.43;3.08;;;;;;;7.59;82.24;99202.13;5025296;28;20171;-71
2022/11/17 10:44:50;;;;;;;6.28;2.88;;;;;;;7.53;81.31;99209.72;5016976;28;20034;-72
2022/11/17 10:47:36;;;;;;;4.90;2.35;;;;;;;7.26;82.71;99203.72;5022634;28;20033;-71
2022/11/17 10:50:23;;;;;;;5.22;2.65;;;;;;;7.38;82.70;99191.19;5022851;28;20509;-72
2022/11/17 10:52:54;;;;;;;5.20;2.95;;;;;;;7.48;82.45;99179.81;5031327;28;20116;-72
2022/11/17 10:55:30;;;;;;;5.05;2.95;;;;;;;7.39;82.81;99188.19;5023947;28;20405;-72
2022/11/17 10:58:18;;;;;;;4.93;2.65;;;;;;;7.47;82.61;99197.03;5026760;28;20029;-73
2022/11/17 11:00:52;;;;;;;4.45;2.65;;;;;;;7.34;83.96;99190.44;5027921;28;20387;-72
2022/11/17 11:03:21;;;;;;;6.63;3.25;;;;;;;7.20;83.63;99178.44;5028056;28;20037;-72
2022/11/17 11:05:58;;;;;;;7.57;2.88;;;;;;;7.12;83.78;99168.03;5030433;28;20033;-72
2022/11/17 11:08:52;;;;;;;4.35;2.88;;;;;;;7.51;82.81;99189.81;5026079;28;20398;-72
2022/11/17 11:11:40;;;;;;;6.45;2.75;;;;;;;7.26;83.26;99185.00;5026547;28;20112;-71
2022/11/17 11:14:35;;;;;;;3.83;2.55;;;;;;;7.34;84.58;99163.66;5019155;28;20048;-72
2022/11/17 11:17:10;;;;;;;5.03;3.22;;;;;;;7.31;84.80;99170.50;5024254;28;20391;-72
2022/11/17 11:19:35;;;;;;;5.30;2.40;;;;;;;7.47;85.25;99146.91;5027733;28;20053;-72
2022/11/17 11:22:15;;;;;;;5.35;3.13;;;;;;;7.45;85.71;99167.19;5026266;28;20106;-71
2022/11/17 11:24:50;;;;;;;5.50;2.13;;;;;;;7.39;86.23;99168.66;5029217;28;20045;-72
2022/11/17 11:27:25;;;;;;;5.80;3.85;;;;;;;7.48;86.38;99163.75;5027845;28;20065;-71
2022/11/17 11:30:09;;;;;;;8.02;2.85;;;;;;;7.41;87.62;99164.47;5023287;28;20033;-72
2022/11/17 11:33:02;;;;;;;4.00;2.83;;;;;;;7.42;88.12;99174.03;5028698;28;20045;-72
2022/11/17 11:35:47;;;;;;;4.88;2.70;;;;;;;7.50;87.59;99161.47;5023017;28;20061;-72
2022/11/17 11:38:50;;;;;;;7.47;3.55;;;;;;;7.47;87.94;99146.91;5027185;28;20029;-72
2022/11/17 11:41:35;;;;;;;6.75;3.45;;;;;;;7.05;89.75;99163.38;5021866;28;20029;-72
2022/11/17 11:44:06;;;;;;;4.30;2.67;;;;;;;7.22;89.40;99156.63;5024526;28;20123;-71
2022/11/17 11:46:50;;;;;;;5.95;3.00;;;;;;;7.17;90.14;99154.31;5020658;28;20045;-71
2022/11/17 11:49:28;;;;;;;5.38;2.58;;;;;;;7.08;90.44;99162.63;5023226;28;20038;-71
2022/11/17 11:51:53;;;;;;;5.25;3.03;;;;;;;7.21;90.36;99155.88;5023748;28;20076;-72
2022/11/17 11:54:57;;;;;;;9.52;4.15;;;;;;;7.21;89.42;99145.19;5023300;28;20377;-72
2022/11/17 11:57:29;;;;;;;4.90;2.92;;;;;;;6.97;91.26;99151.06;5013097;28;20042;-72
2022/11/17 12:00:00;;;;;;;6.43;2.10;;;;;;;7.00;91.58;99154.91;5024493;28;20051;-72
2022/11/17 12:02:44;;;;;;;;;;;;;;;7.18;91.06;99134.44;5014712;28;20037;-72
2022/11/17 12:05:16;;;;;;;6.05;2.75;;;;;;;7.18;90.53;99153.19;5024625;28;19972;-72
2022/11/17 12:08:10;;;;;;;4.57;2.50;;;;;;;7.18;91.82;99142.47;5027854;28;20033;-72
2022/11/17 12:10:52;;;;;;;5.55;3.03;;;;;;;7.25;91.65;99140.63;5023844;28;20136;-71
2022/11/17 12:13:21;;;;;;;4.32;2.88;;;;;;;7.39;91.93;99145.34;5025987;28;20108;-72
2022/11/17 12:15:47;;;;;;;3.95;3.05;;;;;;;7.30;91.35;99152.88;5033436;23;20054;-67
2022/11/17 12:18:32;;;;;;;3.33;2.50;;;;;;;7.34;90.84;99142.97;5001343;28;20036;-67
2022/11/17 12:21:28;;;;;;;5.60;3.22;;;;;;;7.25;92.00;99137.97;5003377;28;20054;-67
2022/11/17 12:24:16;;;;;;;4.60;2.72;;;;;;;7.35;91.19;99152.56;4999815;28;20080;-67
2022/11/17 12:26:41;;;;;;;5.07;2.78;;;;;;;7.38;91.19;99145.69;5004380;28;20116;-67
2022/11/17 12:29:19;;;;;;;7.13;3.67;;;;;;;7.13;92.37;99148.16;5003593;28;20061;-67